sensor_id;sensor_type;location;lat;lon;timestamp;P1;durP1;ratioP1;P2;durP2;ratioP2
23282;SDS011;11810;51.178;3.878;2023-03-11T00:01:21;12.23;;;3.33;;
23282;SDS011;11810;51.178;3.878;2023-03-11T00:03:47;12.70;;;3.67;;
23282;SDS011;11810;51.178;3.878;2023-03-11T00:06:13;12.90;;;3.50;;
23282;SDS011;11810;51.178;3.878;2023-03-11T00:08:39;14.18;;;2.95;;
23282;SDS011;11810;51.178;3.878;2023-03-11T00:11:05;12.73;;;2.70;;
23282;SDS011;11810;51.178;3.878;2023-03-11T00:13:31;10.88;;;2.58;;
23282;SDS011;11810;51.178;3.878;2023-03-11T00:15:57;12.80;;;2.53;;
23282;SDS011;11810;51.178;3.878;2023-03-11T00:18:26;18.45;;;2.70;;
23282;SDS011;11810;51.178;3.878;2023-03-11T00:22:38;8.77;;;2.38;;
23282;SDS011;11810;51.178;3.878;2023-03-11T00:25:04;10.27;;;2.30;;
23282;SDS011;11810;51.178;3.878;2023-03-11T00:27:30;16.00;;;2.72;;
23282;SDS011;11810;51.178;3.878;2023-03-11T00:29:56;8.13;;;3.83;;
23282;SDS011;11810;51.178;3.878;2023-03-11T00:32:22;14.70;;;2.92;;
23282;SDS011;11810;51.178;3.878;2023-03-11T00:34:48;9.70;;;2.15;;
23282;SDS011;11810;51.178;3.878;2023-03-11T00:37:13;11.35;;;3.65;;
23282;SDS011;11810;51.178;3.878;2023-03-11T00:39:39;10.02;;;2.00;;
23282;SDS011;11810;51.178;3.878;2023-03-11T00:42:05;8.40;;;1.95;;
23282;SDS011;11810;51.178;3.878;2023-03-11T00:44:31;8.60;;;1.95;;
23282;SDS011;11810;51.178;3.878;2023-03-11T00:47:41;5.20;;;2.15;;
23282;SDS011;11810;51.178;3.878;2023-03-11T00:50:07;7.93;;;1.95;;
23282;SDS011;11810;51.178;3.878;2023-03-11T00:52:36;9.15;;;2.15;;
23282;SDS011;11810;51.178;3.878;2023-03-11T00:55:03;7.05;;;1.70;;
23282;SDS011;11810;51.178;3.878;2023-03-11T00:57:30;10.23;;;2.55;;
23282;SDS011;11810;51.178;3.878;2023-03-11T00:59:56;12.65;;;2.40;;
23282;SDS011;11810;51.178;3.878;2023-03-11T01:02:23;7.05;;;2.25;;
23282;SDS011;11810;51.178;3.878;2023-03-11T01:05:43;5.75;;;2.10;;
23282;SDS011;11810;51.178;3.878;2023-03-11T01:08:09;9.75;;;2.17;;
23282;SDS011;11810;51.178;3.878;2023-03-11T01:10:35;11.35;;;3.50;;
23282;SDS011;11810;51.178;3.878;2023-03-11T01:16:44;9.82;;;3.50;;
23282;SDS011;11810;51.178;3.878;2023-03-11T01:20:45;10.25;;;3.50;;
23282;SDS011;11810;51.178;3.878;2023-03-11T01:23:11;9.57;;;2.53;;
23282;SDS011;11810;51.178;3.878;2023-03-11T01:25:45;20.10;;;2.70;;
23282;SDS011;11810;51.178;3.878;2023-03-11T01:28:11;8.77;;;2.28;;
23282;SDS011;11810;51.178;3.878;2023-03-11T01:30:38;10.95;;;2.15;;
23282;SDS011;11810;51.178;3.878;2023-03-11T01:33:06;5.43;;;2.20;;
23282;SDS011;11810;51.178;3.878;2023-03-11T01:35:33;9.35;;;3.08;;
23282;SDS011;11810;51.178;3.878;2023-03-11T01:37:59;6.47;;;1.98;;
23282;SDS011;11810;51.178;3.878;2023-03-11T01:42:55;9.75;;;1.80;;
23282;SDS011;11810;51.178;3.878;2023-03-11T01:47:52;6.47;;;1.95;;
23282;SDS011;11810;51.178;3.878;2023-03-11T01:50:18;7.00;;;1.85;;
23282;SDS011;11810;51.178;3.878;2023-03-11T01:52:44;7.78;;;2.10;;
23282;SDS011;11810;51.178;3.878;2023-03-11T01:55:10;11.63;;;2.25;;
23282;SDS011;11810;51.178;3.878;2023-03-11T01:57:38;9.93;;;2.72;;
23282;SDS011;11810;51.178;3.878;2023-03-11T02:00:07;8.98;;;2.05;;
23282;SDS011;11810;51.178;3.878;2023-03-11T02:02:35;9.98;;;2.95;;
23282;SDS011;11810;51.178;3.878;2023-03-11T02:05:10;8.63;;;3.20;;
23282;SDS011;11810;51.178;3.878;2023-03-11T02:07:37;9.60;;;2.75;;
23282;SDS011;11810;51.178;3.878;2023-03-11T02:10:06;7.47;;;2.83;;
23282;SDS011;11810;51.178;3.878;2023-03-11T02:12:34;10.88;;;4.07;;
23282;SDS011;11810;51.178;3.878;2023-03-11T02:16:51;16.13;;;4.40;;
23282;SDS011;11810;51.178;3.878;2023-03-11T02:19:23;9.63;;;4.05;;
23282;SDS011;11810;51.178;3.878;2023-03-11T02:22:05;17.05;;;5.20;;
23282;SDS011;11810;51.178;3.878;2023-03-11T02:24:39;15.77;;;4.82;;
23282;SDS011;11810;51.178;3.878;2023-03-11T02:27:24;16.27;;;4.50;;
23282;SDS011;11810;51.178;3.878;2023-03-11T02:29:52;13.93;;;4.72;;
23282;SDS011;11810;51.178;3.878;2023-03-11T02:34:53;18.42;;;6.65;;
23282;SDS011;11810;51.178;3.878;2023-03-11T02:37:19;28.45;;;8.70;;
23282;SDS011;11810;51.178;3.878;2023-03-11T02:39:46;16.35;;;6.57;;
23282;SDS011;11810;51.178;3.878;2023-03-11T02:45:48;21.50;;;6.07;;
23282;SDS011;11810;51.178;3.878;2023-03-11T02:48:15;20.08;;;5.50;;
23282;SDS011;11810;51.178;3.878;2023-03-11T02:50:43;19.63;;;6.07;;
23282;SDS011;11810;51.178;3.878;2023-03-11T02:53:10;23.85;;;6.03;;
23282;SDS011;11810;51.178;3.878;2023-03-11T02:55:36;14.82;;;5.53;;
23282;SDS011;11810;51.178;3.878;2023-03-11T02:58:03;12.85;;;5.47;;
23282;SDS011;11810;51.178;3.878;2023-03-11T03:00:30;20.13;;;5.55;;
23282;SDS011;11810;51.178;3.878;2023-03-11T03:02:56;20.27;;;4.95;;
23282;SDS011;11810;51.178;3.878;2023-03-11T03:05:22;18.55;;;5.82;;
23282;SDS011;11810;51.178;3.878;2023-03-11T03:07:48;14.05;;;6.05;;
23282;SDS011;11810;51.178;3.878;2023-03-11T03:10:15;18.85;;;5.45;;
23282;SDS011;11810;51.178;3.878;2023-03-11T03:12:43;24.20;;;5.88;;
23282;SDS011;11810;51.178;3.878;2023-03-11T03:15:09;20.90;;;6.95;;
23282;SDS011;11810;51.178;3.878;2023-03-11T03:17:37;20.75;;;6.97;;
23282;SDS011;11810;51.178;3.878;2023-03-11T03:20:09;23.25;;;6.60;;
23282;SDS011;11810;51.178;3.878;2023-03-11T03:22:38;18.52;;;7.30;;
23282;SDS011;11810;51.178;3.878;2023-03-11T03:25:05;18.08;;;5.22;;
23282;SDS011;11810;51.178;3.878;2023-03-11T03:27:32;16.30;;;5.45;;
23282;SDS011;11810;51.178;3.878;2023-03-11T03:29:58;16.30;;;5.70;;
23282;SDS011;11810;51.178;3.878;2023-03-11T03:32:24;15.82;;;5.65;;
23282;SDS011;11810;51.178;3.878;2023-03-11T03:34:50;21.27;;;5.47;;
23282;SDS011;11810;51.178;3.878;2023-03-11T03:37:22;20.00;;;5.85;;
23282;SDS011;11810;51.178;3.878;2023-03-11T03:40:01;12.82;;;5.20;;
23282;SDS011;11810;51.178;3.878;2023-03-11T03:42:32;20.00;;;5.50;;
23282;SDS011;11810;51.178;3.878;2023-03-11T03:45:02;20.38;;;5.47;;
23282;SDS011;11810;51.178;3.878;2023-03-11T03:47:30;15.48;;;5.43;;
23282;SDS011;11810;51.178;3.878;2023-03-11T03:49:57;19.25;;;5.38;;
23282;SDS011;11810;51.178;3.878;2023-03-11T03:52:23;16.83;;;4.78;;
23282;SDS011;11810;51.178;3.878;2023-03-11T03:55:04;19.00;;;5.60;;
23282;SDS011;11810;51.178;3.878;2023-03-11T03:57:31;22.55;;;5.38;;
23282;SDS011;11810;51.178;3.878;2023-03-11T03:59:57;11.57;;;5.18;;
23282;SDS011;11810;51.178;3.878;2023-03-11T04:02:22;18.58;;;5.05;;
23282;SDS011;11810;51.178;3.878;2023-03-11T04:04:48;24.13;;;4.18;;
23282;SDS011;11810;51.178;3.878;2023-03-11T04:07:15;17.45;;;4.30;;
23282;SDS011;11810;51.178;3.878;2023-03-11T04:09:42;13.35;;;4.43;;
23282;SDS011;11810;51.178;3.878;2023-03-11T04:12:11;15.02;;;3.80;;
23282;SDS011;11810;51.178;3.878;2023-03-11T04:14:39;16.75;;;4.22;;
23282;SDS011;11810;51.178;3.878;2023-03-11T04:17:05;9.45;;;4.25;;
23282;SDS011;11810;51.178;3.878;2023-03-11T04:19:31;11.25;;;4.35;;
23282;SDS011;11810;51.178;3.878;2023-03-11T04:21:57;18.65;;;5.05;;
23282;SDS011;11810;51.178;3.878;2023-03-11T04:24:23;16.27;;;5.07;;
23282;SDS011;11810;51.178;3.878;2023-03-11T04:26:49;13.43;;;5.10;;
23282;SDS011;11810;51.178;3.878;2023-03-11T04:29:15;9.88;;;4.25;;
23282;SDS011;11810;51.178;3.878;2023-03-11T04:31:41;25.05;;;5.13;;
23282;SDS011;11810;51.178;3.878;2023-03-11T04:34:07;18.92;;;4.90;;
23282;SDS011;11810;51.178;3.878;2023-03-11T04:36:33;21.15;;;5.30;;
23282;SDS011;11810;51.178;3.878;2023-03-11T04:40:08;19.65;;;5.85;;
23282;SDS011;11810;51.178;3.878;2023-03-11T04:44:08;11.27;;;4.75;;
23282;SDS011;11810;51.178;3.878;2023-03-11T04:48:09;14.85;;;6.03;;
23282;SDS011;11810;51.178;3.878;2023-03-11T04:50:35;19.10;;;5.60;;
23282;SDS011;11810;51.178;3.878;2023-03-11T04:55:11;23.50;;;6.80;;
23282;SDS011;11810;51.178;3.878;2023-03-11T04:57:38;16.90;;;5.68;;
23282;SDS011;11810;51.178;3.878;2023-03-11T05:00:05;20.20;;;5.82;;
23282;SDS011;11810;51.178;3.878;2023-03-11T05:02:36;18.38;;;5.80;;
23282;SDS011;11810;51.178;3.878;2023-03-11T05:05:03;20.92;;;5.72;;
23282;SDS011;11810;51.178;3.878;2023-03-11T05:07:30;17.27;;;5.55;;
23282;SDS011;11810;51.178;3.878;2023-03-11T05:09:56;17.45;;;4.75;;
23282;SDS011;11810;51.178;3.878;2023-03-11T05:12:22;16.00;;;5.88;;
23282;SDS011;11810;51.178;3.878;2023-03-11T05:14:48;17.77;;;4.93;;
23282;SDS011;11810;51.178;3.878;2023-03-11T05:17:14;16.45;;;5.00;;
23282;SDS011;11810;51.178;3.878;2023-03-11T05:19:43;14.43;;;5.03;;
23282;SDS011;11810;51.178;3.878;2023-03-11T05:22:09;24.63;;;5.07;;
23282;SDS011;11810;51.178;3.878;2023-03-11T05:25:13;16.20;;;4.88;;
23282;SDS011;11810;51.178;3.878;2023-03-11T05:28:13;14.73;;;5.07;;
23282;SDS011;11810;51.178;3.878;2023-03-11T05:30:39;16.38;;;4.55;;
23282;SDS011;11810;51.178;3.878;2023-03-11T05:34:36;11.40;;;4.50;;
23282;SDS011;11810;51.178;3.878;2023-03-11T05:37:02;12.98;;;4.97;;
23282;SDS011;11810;51.178;3.878;2023-03-11T05:39:28;14.77;;;4.32;;
23282;SDS011;11810;51.178;3.878;2023-03-11T05:42:15;13.75;;;4.32;;
23282;SDS011;11810;51.178;3.878;2023-03-11T05:44:41;14.98;;;4.55;;
23282;SDS011;11810;51.178;3.878;2023-03-11T05:47:07;14.68;;;4.30;;
23282;SDS011;11810;51.178;3.878;2023-03-11T05:49:33;16.20;;;4.78;;
23282;SDS011;11810;51.178;3.878;2023-03-11T05:51:59;12.00;;;4.03;;
23282;SDS011;11810;51.178;3.878;2023-03-11T05:54:25;14.85;;;4.70;;
23282;SDS011;11810;51.178;3.878;2023-03-11T05:56:51;10.93;;;4.60;;
23282;SDS011;11810;51.178;3.878;2023-03-11T05:59:17;13.45;;;4.57;;
23282;SDS011;11810;51.178;3.878;2023-03-11T06:02:17;15.80;;;5.03;;
23282;SDS011;11810;51.178;3.878;2023-03-11T06:04:45;14.10;;;4.85;;
23282;SDS011;11810;51.178;3.878;2023-03-11T06:07:12;12.27;;;4.72;;
23282;SDS011;11810;51.178;3.878;2023-03-11T06:09:39;14.57;;;4.88;;
23282;SDS011;11810;51.178;3.878;2023-03-11T06:14:04;14.70;;;5.18;;
23282;SDS011;11810;51.178;3.878;2023-03-11T06:16:30;17.80;;;5.32;;
23282;SDS011;11810;51.178;3.878;2023-03-11T06:18:56;13.48;;;5.68;;
23282;SDS011;11810;51.178;3.878;2023-03-11T06:22:34;14.07;;;5.80;;
23282;SDS011;11810;51.178;3.878;2023-03-11T06:25:00;17.58;;;6.63;;
23282;SDS011;11810;51.178;3.878;2023-03-11T06:29:20;15.73;;;6.72;;
23282;SDS011;11810;51.178;3.878;2023-03-11T06:31:48;11.40;;;5.40;;
23282;SDS011;11810;51.178;3.878;2023-03-11T06:36:22;13.18;;;6.28;;
23282;SDS011;11810;51.178;3.878;2023-03-11T06:46:34;19.30;;;7.18;;
23282;SDS011;11810;51.178;3.878;2023-03-11T06:49:00;12.88;;;7.30;;
23282;SDS011;11810;51.178;3.878;2023-03-11T06:51:26;15.13;;;7.13;;
23282;SDS011;11810;51.178;3.878;2023-03-11T06:53:52;15.02;;;7.50;;
23282;SDS011;11810;51.178;3.878;2023-03-11T06:56:18;12.02;;;6.90;;
23282;SDS011;11810;51.178;3.878;2023-03-11T07:00:26;16.77;;;7.15;;
23282;SDS011;11810;51.178;3.878;2023-03-11T07:04:10;15.30;;;7.57;;
23282;SDS011;11810;51.178;3.878;2023-03-11T07:06:36;20.17;;;11.93;;
23282;SDS011;11810;51.178;3.878;2023-03-11T07:09:02;18.02;;;10.98;;
23282;SDS011;11810;51.178;3.878;2023-03-11T07:11:28;24.50;;;12.55;;
23282;SDS011;11810;51.178;3.878;2023-03-11T07:13:54;26.40;;;11.60;;
23282;SDS011;11810;51.178;3.878;2023-03-11T07:16:21;18.48;;;9.75;;
23282;SDS011;11810;51.178;3.878;2023-03-11T07:18:51;19.52;;;8.45;;
23282;SDS011;11810;51.178;3.878;2023-03-11T07:21:23;13.35;;;7.68;;
23282;SDS011;11810;51.178;3.878;2023-03-11T07:23:53;15.55;;;7.60;;
23282;SDS011;11810;51.178;3.878;2023-03-11T07:26:20;18.33;;;7.28;;
23282;SDS011;11810;51.178;3.878;2023-03-11T07:29:28;12.13;;;6.70;;
23282;SDS011;11810;51.178;3.878;2023-03-11T07:31:54;11.23;;;5.05;;
23282;SDS011;11810;51.178;3.878;2023-03-11T07:34:20;12.98;;;5.38;;
23282;SDS011;11810;51.178;3.878;2023-03-11T07:36:51;12.43;;;6.20;;
23282;SDS011;11810;51.178;3.878;2023-03-11T07:39:17;10.77;;;7.47;;
23282;SDS011;11810;51.178;3.878;2023-03-11T07:41:44;18.50;;;7.63;;
23282;SDS011;11810;51.178;3.878;2023-03-11T07:44:11;15.20;;;8.02;;
23282;SDS011;11810;51.178;3.878;2023-03-11T07:46:38;15.07;;;6.50;;
23282;SDS011;11810;51.178;3.878;2023-03-11T07:49:04;13.88;;;6.25;;
23282;SDS011;11810;51.178;3.878;2023-03-11T07:51:32;13.95;;;5.95;;
23282;SDS011;11810;51.178;3.878;2023-03-11T07:53:59;9.93;;;4.50;;
23282;SDS011;11810;51.178;3.878;2023-03-11T07:56:27;10.68;;;3.70;;
23282;SDS011;11810;51.178;3.878;2023-03-11T07:58:56;13.30;;;4.18;;
23282;SDS011;11810;51.178;3.878;2023-03-11T08:01:23;7.95;;;3.92;;
23282;SDS011;11810;51.178;3.878;2023-03-11T08:03:51;16.50;;;4.32;;
23282;SDS011;11810;51.178;3.878;2023-03-11T08:06:24;15.20;;;5.22;;
23282;SDS011;11810;51.178;3.878;2023-03-11T08:08:51;10.98;;;5.45;;
23282;SDS011;11810;51.178;3.878;2023-03-11T08:11:18;11.38;;;4.85;;
23282;SDS011;11810;51.178;3.878;2023-03-11T08:13:45;10.25;;;4.80;;
23282;SDS011;11810;51.178;3.878;2023-03-11T08:16:20;14.18;;;5.53;;
23282;SDS011;11810;51.178;3.878;2023-03-11T08:18:46;14.45;;;5.32;;
23282;SDS011;11810;51.178;3.878;2023-03-11T08:21:18;14.63;;;6.05;;
23282;SDS011;11810;51.178;3.878;2023-03-11T08:23:46;16.30;;;6.30;;
23282;SDS011;11810;51.178;3.878;2023-03-11T08:26:14;17.83;;;6.13;;
23282;SDS011;11810;51.178;3.878;2023-03-11T08:28:41;20.40;;;6.72;;
23282;SDS011;11810;51.178;3.878;2023-03-11T08:31:11;15.25;;;6.22;;
23282;SDS011;11810;51.178;3.878;2023-03-11T08:33:45;14.63;;;5.70;;
23282;SDS011;11810;51.178;3.878;2023-03-11T08:36:14;16.33;;;5.38;;
23282;SDS011;11810;51.178;3.878;2023-03-11T08:38:40;17.98;;;5.45;;
23282;SDS011;11810;51.178;3.878;2023-03-11T08:41:06;18.77;;;6.80;;
23282;SDS011;11810;51.178;3.878;2023-03-11T08:43:32;15.68;;;6.40;;
23282;SDS011;11810;51.178;3.878;2023-03-11T08:45:59;12.30;;;5.88;;
23282;SDS011;11810;51.178;3.878;2023-03-11T08:48:25;12.40;;;5.78;;
23282;SDS011;11810;51.178;3.878;2023-03-11T08:50:51;12.25;;;5.00;;
23282;SDS011;11810;51.178;3.878;2023-03-11T08:53:17;10.48;;;4.72;;
23282;SDS011;11810;51.178;3.878;2023-03-11T08:55:43;16.38;;;5.40;;
23282;SDS011;11810;51.178;3.878;2023-03-11T08:58:09;11.43;;;3.40;;
23282;SDS011;11810;51.178;3.878;2023-03-11T09:00:35;12.32;;;3.00;;
23282;SDS011;11810;51.178;3.878;2023-03-11T09:03:01;13.40;;;4.00;;
23282;SDS011;11810;51.178;3.878;2023-03-11T09:05:26;9.05;;;2.95;;
23282;SDS011;11810;51.178;3.878;2023-03-11T09:07:52;12.63;;;2.80;;
23282;SDS011;11810;51.178;3.878;2023-03-11T09:10:18;7.95;;;2.83;;
23282;SDS011;11810;51.178;3.878;2023-03-11T09:12:45;7.38;;;2.20;;
23282;SDS011;11810;51.178;3.878;2023-03-11T09:15:10;10.05;;;2.40;;
23282;SDS011;11810;51.178;3.878;2023-03-11T09:17:36;7.00;;;1.77;;
23282;SDS011;11810;51.178;3.878;2023-03-11T09:20:03;6.57;;;2.28;;
23282;SDS011;11810;51.178;3.878;2023-03-11T09:22:29;7.05;;;2.35;;
23282;SDS011;11810;51.178;3.878;2023-03-11T09:24:55;10.25;;;1.55;;
23282;SDS011;11810;51.178;3.878;2023-03-11T09:27:21;7.38;;;1.52;;
23282;SDS011;11810;51.178;3.878;2023-03-11T09:29:47;8.52;;;1.98;;
23282;SDS011;11810;51.178;3.878;2023-03-11T09:32:13;10.93;;;2.22;;
23282;SDS011;11810;51.178;3.878;2023-03-11T09:34:40;6.80;;;1.88;;
23282;SDS011;11810;51.178;3.878;2023-03-11T09:37:05;7.72;;;1.70;;
23282;SDS011;11810;51.178;3.878;2023-03-11T09:39:31;5.97;;;1.33;;
23282;SDS011;11810;51.178;3.878;2023-03-11T09:42:01;5.20;;;1.50;;
23282;SDS011;11810;51.178;3.878;2023-03-11T09:44:40;5.50;;;1.08;;
23282;SDS011;11810;51.178;3.878;2023-03-11T09:52:35;4.75;;;1.10;;
23282;SDS011;11810;51.178;3.878;2023-03-11T09:58:12;4.85;;;1.42;;
23282;SDS011;11810;51.178;3.878;2023-03-11T10:00:43;11.30;;;1.45;;
23282;SDS011;11810;51.178;3.878;2023-03-11T10:03:16;10.05;;;1.45;;
23282;SDS011;11810;51.178;3.878;2023-03-11T10:05:52;8.82;;;1.27;;
23282;SDS011;11810;51.178;3.878;2023-03-11T10:08:56;3.22;;;1.23;;
23282;SDS011;11810;51.178;3.878;2023-03-11T10:19:31;16.23;;;8.90;;
23282;SDS011;11810;51.178;3.878;2023-03-11T10:28:03;6.40;;;2.75;;
23282;SDS011;11810;51.178;3.878;2023-03-11T10:30:35;6.80;;;1.88;;
23282;SDS011;11810;51.178;3.878;2023-03-11T10:36:12;6.40;;;1.95;;
23282;SDS011;11810;51.178;3.878;2023-03-11T10:38:44;6.28;;;1.67;;
23282;SDS011;11810;51.178;3.878;2023-03-11T10:41:58;8.52;;;1.83;;
23282;SDS011;11810;51.178;3.878;2023-03-11T10:44:09;10.32;;;2.20;;
23282;SDS011;11810;51.178;3.878;2023-03-11T10:46:43;12.80;;;1.50;;
23282;SDS011;11810;51.178;3.878;2023-03-11T10:49:12;7.38;;;2.15;;
23282;SDS011;11810;51.178;3.878;2023-03-11T10:51:40;6.70;;;2.17;;
23282;SDS011;11810;51.178;3.878;2023-03-11T10:56:53;10.23;;;1.90;;
23282;SDS011;11810;51.178;3.878;2023-03-11T11:02:30;11.32;;;1.83;;
23282;SDS011;11810;51.178;3.878;2023-03-11T11:07:45;6.70;;;2.40;;
23282;SDS011;11810;51.178;3.878;2023-03-11T11:10:21;10.18;;;2.40;;
23282;SDS011;11810;51.178;3.878;2023-03-11T11:13:15;11.60;;;3.22;;
23282;SDS011;11810;51.178;3.878;2023-03-11T11:21:53;11.15;;;2.70;;
23282;SDS011;11810;51.178;3.878;2023-03-11T11:24:22;10.73;;;3.00;;
23282;SDS011;11810;51.178;3.878;2023-03-11T11:29:45;11.20;;;2.97;;
23282;SDS011;11810;51.178;3.878;2023-03-11T11:37:23;13.63;;;3.08;;
23282;SDS011;11810;51.178;3.878;2023-03-11T11:39:54;7.78;;;2.63;;
23282;SDS011;11810;51.178;3.878;2023-03-11T11:42:25;14.35;;;3.08;;
23282;SDS011;11810;51.178;3.878;2023-03-11T11:44:56;12.05;;;3.55;;
23282;SDS011;11810;51.178;3.878;2023-03-11T11:47:36;11.73;;;3.40;;
23282;SDS011;11810;51.178;3.878;2023-03-11T11:50:12;9.77;;;3.78;;
23282;SDS011;11810;51.178;3.878;2023-03-11T11:53:18;13.93;;;3.60;;
23282;SDS011;11810;51.178;3.878;2023-03-11T11:55:52;15.68;;;4.47;;
23282;SDS011;11810;51.178;3.878;2023-03-11T11:58:19;9.00;;;3.13;;
23282;SDS011;11810;51.178;3.878;2023-03-11T12:00:57;6.18;;;2.50;;
23282;SDS011;11810;51.178;3.878;2023-03-11T12:03:43;6.30;;;2.50;;
23282;SDS011;11810;51.178;3.878;2023-03-11T12:12:20;7.50;;;2.28;;
23282;SDS011;11810;51.178;3.878;2023-03-11T12:17:19;9.23;;;2.25;;
23282;SDS011;11810;51.178;3.878;2023-03-11T12:19:52;5.72;;;1.83;;
23282;SDS011;11810;51.178;3.878;2023-03-11T12:27:58;10.23;;;2.17;;
23282;SDS011;11810;51.178;3.878;2023-03-11T12:30:52;6.85;;;1.70;;
23282;SDS011;11810;51.178;3.878;2023-03-11T12:35:56;6.95;;;2.22;;
23282;SDS011;11810;51.178;3.878;2023-03-11T12:38:44;5.68;;;1.70;;
23282;SDS011;11810;51.178;3.878;2023-03-11T12:41:28;8.32;;;1.73;;
23282;SDS011;11810;51.178;3.878;2023-03-11T12:44:19;14.52;;;1.98;;
23282;SDS011;11810;51.178;3.878;2023-03-11T12:54:39;4.75;;;1.63;;
23282;SDS011;11810;51.178;3.878;2023-03-11T13:02:54;5.57;;;1.75;;
23282;SDS011;11810;51.178;3.878;2023-03-11T13:08:30;15.90;;;1.95;;
23282;SDS011;11810;51.178;3.878;2023-03-11T13:11:00;7.32;;;1.80;;
23282;SDS011;11810;51.178;3.878;2023-03-11T13:13:46;9.32;;;3.72;;
23282;SDS011;11810;51.178;3.878;2023-03-11T13:18:41;5.93;;;2.30;;
23282;SDS011;11810;51.178;3.878;2023-03-11T13:42:46;6.60;;;2.00;;
23282;SDS011;11810;51.178;3.878;2023-03-11T13:45:36;7.30;;;2.00;;
23282;SDS011;11810;51.178;3.878;2023-03-11T13:48:06;6.68;;;1.85;;
23282;SDS011;11810;51.178;3.878;2023-03-11T13:50:44;9.90;;;2.38;;
23282;SDS011;11810;51.178;3.878;2023-03-11T13:53:22;10.13;;;7.72;;
23282;SDS011;11810;51.178;3.878;2023-03-11T13:55:53;5.30;;;2.13;;
23282;SDS011;11810;51.178;3.878;2023-03-11T13:58:24;4.38;;;2.00;;
23282;SDS011;11810;51.178;3.878;2023-03-11T14:00:57;6.63;;;1.45;;
23282;SDS011;11810;51.178;3.878;2023-03-11T14:03:26;4.47;;;1.42;;
23282;SDS011;11810;51.178;3.878;2023-03-11T14:06:05;5.68;;;1.75;;
23282;SDS011;11810;51.178;3.878;2023-03-11T14:08:36;5.70;;;1.48;;
23282;SDS011;11810;51.178;3.878;2023-03-11T14:13:38;5.47;;;1.38;;
23282;SDS011;11810;51.178;3.878;2023-03-11T14:16:19;5.88;;;1.40;;
23282;SDS011;11810;51.178;3.878;2023-03-11T14:21:36;5.88;;;1.80;;
23282;SDS011;11810;51.178;3.878;2023-03-11T14:26:55;4.13;;;1.30;;
23282;SDS011;11810;51.178;3.878;2023-03-11T14:29:57;5.50;;;1.60;;
23282;SDS011;11810;51.178;3.878;2023-03-11T14:32:26;6.00;;;1.83;;
23282;SDS011;11810;51.178;3.878;2023-03-11T14:34:54;10.48;;;1.83;;
23282;SDS011;11810;51.178;3.878;2023-03-11T14:37:25;6.80;;;2.17;;
23282;SDS011;11810;51.178;3.878;2023-03-11T14:39:58;6.10;;;1.60;;
23282;SDS011;11810;51.178;3.878;2023-03-11T14:42:25;7.75;;;1.52;;
23282;SDS011;11810;51.178;3.878;2023-03-11T14:45:15;11.20;;;1.63;;
23282;SDS011;11810;51.178;3.878;2023-03-11T14:47:54;9.18;;;1.73;;
23282;SDS011;11810;51.178;3.878;2023-03-11T14:50:31;7.15;;;2.30;;
23282;SDS011;11810;51.178;3.878;2023-03-11T14:56:05;7.38;;;2.67;;
23282;SDS011;11810;51.178;3.878;2023-03-11T14:58:38;17.27;;;5.15;;
23282;SDS011;11810;51.178;3.878;2023-03-11T15:03:47;8.10;;;2.65;;
23282;SDS011;11810;51.178;3.878;2023-03-11T15:06:19;9.38;;;2.35;;
23282;SDS011;11810;51.178;3.878;2023-03-11T15:08:57;5.80;;;2.15;;
23282;SDS011;11810;51.178;3.878;2023-03-11T15:11:29;9.90;;;2.20;;
23282;SDS011;11810;51.178;3.878;2023-03-11T15:16:54;7.93;;;1.27;;
23282;SDS011;11810;51.178;3.878;2023-03-11T15:19:34;4.90;;;1.80;;
23282;SDS011;11810;51.178;3.878;2023-03-11T15:22:16;6.25;;;1.63;;
23282;SDS011;11810;51.178;3.878;2023-03-11T15:24:49;6.88;;;1.65;;
23282;SDS011;11810;51.178;3.878;2023-03-11T15:27:36;6.63;;;1.73;;
23282;SDS011;11810;51.178;3.878;2023-03-11T15:30:04;3.63;;;1.40;;
23282;SDS011;11810;51.178;3.878;2023-03-11T15:32:45;2.80;;;1.15;;
23282;SDS011;11810;51.178;3.878;2023-03-11T15:37:49;9.75;;;2.00;;
23282;SDS011;11810;51.178;3.878;2023-03-11T15:40:35;7.35;;;1.58;;
23282;SDS011;11810;51.178;3.878;2023-03-11T15:45:39;6.00;;;5.30;;
23282;SDS011;11810;51.178;3.878;2023-03-11T15:48:08;6.93;;;2.50;;
23282;SDS011;11810;51.178;3.878;2023-03-11T15:50:34;4.28;;;2.60;;
23282;SDS011;11810;51.178;3.878;2023-03-11T15:53:28;6.95;;;2.80;;
23282;SDS011;11810;51.178;3.878;2023-03-11T15:56:01;6.07;;;2.50;;
23282;SDS011;11810;51.178;3.878;2023-03-11T15:58:36;8.07;;;2.22;;
23282;SDS011;11810;51.178;3.878;2023-03-11T16:01:02;5.53;;;2.28;;
23282;SDS011;11810;51.178;3.878;2023-03-11T16:03:28;4.05;;;1.95;;
23282;SDS011;11810;51.178;3.878;2023-03-11T16:05:54;10.07;;;1.95;;
23282;SDS011;11810;51.178;3.878;2023-03-11T16:08:20;5.35;;;1.70;;
23282;SDS011;11810;51.178;3.878;2023-03-11T16:10:46;4.25;;;1.60;;
23282;SDS011;11810;51.178;3.878;2023-03-11T16:13:12;7.63;;;2.05;;
23282;SDS011;11810;51.178;3.878;2023-03-11T16:15:39;4.13;;;1.50;;
23282;SDS011;11810;51.178;3.878;2023-03-11T16:18:06;8.82;;;1.58;;
23282;SDS011;11810;51.178;3.878;2023-03-11T16:20:36;5.80;;;1.73;;
23282;SDS011;11810;51.178;3.878;2023-03-11T16:23:26;11.48;;;2.30;;
23282;SDS011;11810;51.178;3.878;2023-03-11T16:25:59;21.88;;;5.35;;
23282;SDS011;11810;51.178;3.878;2023-03-11T16:28:28;20.98;;;4.63;;
23282;SDS011;11810;51.178;3.878;2023-03-11T16:30:54;9.25;;;2.72;;
23282;SDS011;11810;51.178;3.878;2023-03-11T16:33:20;6.30;;;2.47;;
23282;SDS011;11810;51.178;3.878;2023-03-11T16:35:46;5.97;;;1.90;;
23282;SDS011;11810;51.178;3.878;2023-03-11T16:38:12;6.68;;;1.60;;
23282;SDS011;11810;51.178;3.878;2023-03-11T16:40:38;6.65;;;1.70;;
23282;SDS011;11810;51.178;3.878;2023-03-11T16:43:08;5.55;;;1.60;;
23282;SDS011;11810;51.178;3.878;2023-03-11T16:45:36;5.93;;;1.95;;
23282;SDS011;11810;51.178;3.878;2023-03-11T16:48:03;3.95;;;1.55;;
23282;SDS011;11810;51.178;3.878;2023-03-11T16:50:30;7.95;;;1.65;;
23282;SDS011;11810;51.178;3.878;2023-03-11T16:52:56;11.23;;;2.05;;
23282;SDS011;11810;51.178;3.878;2023-03-11T16:55:23;8.10;;;1.65;;
23282;SDS011;11810;51.178;3.878;2023-03-11T16:57:51;5.32;;;1.80;;
23282;SDS011;11810;51.178;3.878;2023-03-11T17:00:19;7.30;;;1.80;;
23282;SDS011;11810;51.178;3.878;2023-03-11T17:02:45;5.30;;;1.90;;
23282;SDS011;11810;51.178;3.878;2023-03-11T17:05:11;4.07;;;2.03;;
23282;SDS011;11810;51.178;3.878;2023-03-11T17:07:37;7.20;;;2.47;;
23282;SDS011;11810;51.178;3.878;2023-03-11T17:10:03;11.98;;;2.17;;
23282;SDS011;11810;51.178;3.878;2023-03-11T17:12:30;7.35;;;2.30;;
23282;SDS011;11810;51.178;3.878;2023-03-11T17:14:55;5.03;;;2.03;;
23282;SDS011;11810;51.178;3.878;2023-03-11T17:17:21;8.73;;;2.15;;
23282;SDS011;11810;51.178;3.878;2023-03-11T17:19:47;9.70;;;2.10;;
23282;SDS011;11810;51.178;3.878;2023-03-11T17:22:14;8.32;;;2.20;;
23282;SDS011;11810;51.178;3.878;2023-03-11T17:24:40;3.90;;;1.90;;
23282;SDS011;11810;51.178;3.878;2023-03-11T17:27:06;6.18;;;2.28;;
23282;SDS011;11810;51.178;3.878;2023-03-11T17:29:32;10.82;;;2.33;;
23282;SDS011;11810;51.178;3.878;2023-03-11T17:31:58;5.68;;;2.33;;
23282;SDS011;11810;51.178;3.878;2023-03-11T17:34:25;9.50;;;2.53;;
23282;SDS011;11810;51.178;3.878;2023-03-11T17:36:51;5.75;;;2.38;;
23282;SDS011;11810;51.178;3.878;2023-03-11T17:39:17;7.30;;;2.90;;
23282;SDS011;11810;51.178;3.878;2023-03-11T17:41:44;8.88;;;2.50;;
23282;SDS011;11810;51.178;3.878;2023-03-11T17:44:10;3.60;;;2.58;;
23282;SDS011;11810;51.178;3.878;2023-03-11T17:46:37;8.57;;;3.42;;
23282;SDS011;11810;51.178;3.878;2023-03-11T17:49:04;12.77;;;3.13;;
23282;SDS011;11810;51.178;3.878;2023-03-11T17:51:31;9.13;;;2.83;;